Portada
METAR-TAF:

METAR-TAF

Aeroports :

Aeroport Internacional de Guangzhou-Baiyun

Canton, Xina

latitud: 23-10N, longitud: 113-20E, altitud: 8 m

Observació

L'informe es va fer fa 30 minuts, a les 11:00 UTC
Vent 6 kt del Est
Temperatura 19°C
Humitat 68%
Pressió 1020 hPa
Visibilitat: 7000 m
Núvols disperses a una alçada de 3300 ft

METAR: ZGGG 211100Z 09003MPS 7000 SCT033 19/13 Q1020 NOSIG

Hora: 19:30 (11:30 UTC)

Pronòstic

L'informe es va fer fa 8 hores i 22 minuts, a les 03:08 UTC
Pronòstic vàlid del 21 a les 06 UTC al 22 a les 06 UTC
Vent 6 kt del Est/Sud-Est
Visibilitat: 7000 m
Cel ennuvolat a una alçada de 3300 ft

TAF: ZGGG 210308Z 2106/2206 12003MPS 7000 BKN033 TX22/2107Z TN16/2122Z

Observacions i pronòstics meteorològics de més de 4000 aeroports (METAR i TAF).

Les estacions disponibles són els punts grocs i vermells al mapa.

Posi el ratolí al punt desitjat per veure el nom de l'estació.

Feu clic per veure les observacions i els pronòstics meteorològics.

Per canviar el mapa: feu clic els botons verds amb una creu de color negre per apropar; al botó verd amb un guió per allunyar la imatge; o en les fletxes verdes per a mapes adjacents.


METAR-TAF: